sensor_id;sensor_type;location;lat;lon;timestamp;P1;durP1;ratioP1;P2;durP2;ratioP2
31282;SDS011;17915;52.540;13.604;2023-08-01T00:02:07;14.90;;;6.93;;
31282;SDS011;17915;52.540;13.604;2023-08-01T00:04:32;8.13;;;5.63;;
31282;SDS011;17915;52.540;13.604;2023-08-01T00:06:58;8.30;;;5.47;;
31282;SDS011;17915;52.540;13.604;2023-08-01T00:09:23;8.93;;;6.10;;
31282;SDS011;17915;52.540;13.604;2023-08-01T00:11:48;11.60;;;6.30;;
31282;SDS011;17915;52.540;13.604;2023-08-01T00:14:14;9.83;;;6.20;;
31282;SDS011;17915;52.540;13.604;2023-08-01T00:16:39;6.57;;;6.00;;
31282;SDS011;17915;52.540;13.604;2023-08-01T00:19:04;9.53;;;5.43;;
31282;SDS011;17915;52.540;13.604;2023-08-01T00:21:30;9.17;;;5.80;;
31282;SDS011;17915;52.540;13.604;2023-08-01T00:23:57;6.97;;;5.72;;
31282;SDS011;17915;52.540;13.604;2023-08-01T00:26:22;14.30;;;7.18;;
31282;SDS011;17915;52.540;13.604;2023-08-01T00:28:48;14.27;;;6.33;;
31282;SDS011;17915;52.540;13.604;2023-08-01T00:31:14;7.57;;;6.00;;
31282;SDS011;17915;52.540;13.604;2023-08-01T00:33:39;9.97;;;6.33;;
31282;SDS011;17915;52.540;13.604;2023-08-01T00:36:05;15.77;;;7.00;;
31282;SDS011;17915;52.540;13.604;2023-08-01T00:38:34;10.27;;;6.72;;
31282;SDS011;17915;52.540;13.604;2023-08-01T00:41:00;8.23;;;6.15;;
31282;SDS011;17915;52.540;13.604;2023-08-01T00:43:25;7.87;;;6.40;;
31282;SDS011;17915;52.540;13.604;2023-08-01T00:45:51;6.83;;;6.00;;
31282;SDS011;17915;52.540;13.604;2023-08-01T00:48:17;6.75;;;6.15;;
31282;SDS011;17915;52.540;13.604;2023-08-01T00:50:43;9.55;;;5.28;;
31282;SDS011;17915;52.540;13.604;2023-08-01T00:53:09;7.80;;;5.50;;
31282;SDS011;17915;52.540;13.604;2023-08-01T00:55:35;8.20;;;5.13;;
31282;SDS011;17915;52.540;13.604;2023-08-01T00:58:00;7.17;;;5.10;;
31282;SDS011;17915;52.540;13.604;2023-08-01T01:00:26;5.83;;;5.30;;
31282;SDS011;17915;52.540;13.604;2023-08-01T01:02:51;7.63;;;5.53;;
31282;SDS011;17915;52.540;13.604;2023-08-01T01:05:17;5.77;;;5.30;;
31282;SDS011;17915;52.540;13.604;2023-08-01T01:07:42;12.03;;;5.53;;
31282;SDS011;17915;52.540;13.604;2023-08-01T01:10:09;5.13;;;4.75;;
31282;SDS011;17915;52.540;13.604;2023-08-01T01:12:35;5.30;;;4.78;;
31282;SDS011;17915;52.540;13.604;2023-08-01T01:15:00;6.53;;;4.70;;
31282;SDS011;17915;52.540;13.604;2023-08-01T01:17:25;8.47;;;5.03;;
31282;SDS011;17915;52.540;13.604;2023-08-01T01:19:51;6.40;;;4.53;;
31282;SDS011;17915;52.540;13.604;2023-08-01T01:22:16;7.67;;;5.60;;
31282;SDS011;17915;52.540;13.604;2023-08-01T01:24:42;6.07;;;5.53;;
31282;SDS011;17915;52.540;13.604;2023-08-01T01:27:08;6.90;;;5.53;;
31282;SDS011;17915;52.540;13.604;2023-08-01T01:29:33;8.13;;;5.53;;
31282;SDS011;17915;52.540;13.604;2023-08-01T01:32:00;5.47;;;5.00;;
31282;SDS011;17915;52.540;13.604;2023-08-01T01:34:26;6.32;;;4.93;;
31282;SDS011;17915;52.540;13.604;2023-08-01T01:36:52;6.72;;;4.90;;
31282;SDS011;17915;52.540;13.604;2023-08-01T01:39:18;9.87;;;6.13;;
31282;SDS011;17915;52.540;13.604;2023-08-01T01:41:43;8.63;;;4.93;;
31282;SDS011;17915;52.540;13.604;2023-08-01T01:44:09;8.33;;;5.03;;
31282;SDS011;17915;52.540;13.604;2023-08-01T01:46:34;5.80;;;5.30;;
31282;SDS011;17915;52.540;13.604;2023-08-01T01:48:59;5.77;;;5.27;;
31282;SDS011;17915;52.540;13.604;2023-08-01T01:51:28;6.60;;;6.00;;
31282;SDS011;17915;52.540;13.604;2023-08-01T01:53:54;6.80;;;5.93;;
31282;SDS011;17915;52.540;13.604;2023-08-01T01:56:20;12.67;;;6.30;;
31282;SDS011;17915;52.540;13.604;2023-08-01T01:58:45;9.17;;;6.20;;
31282;SDS011;17915;52.540;13.604;2023-08-01T02:01:10;12.73;;;6.07;;
31282;SDS011;17915;52.540;13.604;2023-08-01T02:03:36;7.20;;;6.60;;
31282;SDS011;17915;52.540;13.604;2023-08-01T02:06:02;15.13;;;6.17;;
31282;SDS011;17915;52.540;13.604;2023-08-01T02:08:30;10.30;;;6.22;;
31282;SDS011;17915;52.540;13.604;2023-08-01T02:10:55;17.30;;;5.53;;
31282;SDS011;17915;52.540;13.604;2023-08-01T02:13:23;6.45;;;5.78;;
31282;SDS011;17915;52.540;13.604;2023-08-01T02:15:49;11.23;;;7.18;;
31282;SDS011;17915;52.540;13.604;2023-08-01T02:18:14;9.43;;;6.10;;
31282;SDS011;17915;52.540;13.604;2023-08-01T02:20:40;12.70;;;7.37;;
31282;SDS011;17915;52.540;13.604;2023-08-01T02:23:05;9.37;;;6.40;;
31282;SDS011;17915;52.540;13.604;2023-08-01T02:25:30;7.43;;;5.97;;
31282;SDS011;17915;52.540;13.604;2023-08-01T02:27:56;8.20;;;6.40;;
31282;SDS011;17915;52.540;13.604;2023-08-01T02:30:21;9.57;;;7.63;;
31282;SDS011;17915;52.540;13.604;2023-08-01T02:32:46;8.17;;;7.07;;
31282;SDS011;17915;52.540;13.604;2023-08-01T02:35:12;6.93;;;6.17;;
31282;SDS011;17915;52.540;13.604;2023-08-01T02:37:37;6.70;;;6.03;;
31282;SDS011;17915;52.540;13.604;2023-08-01T02:40:03;7.13;;;6.43;;
31282;SDS011;17915;52.540;13.604;2023-08-01T02:42:32;8.52;;;6.60;;
31282;SDS011;17915;52.540;13.604;2023-08-01T02:44:57;7.40;;;6.73;;
31282;SDS011;17915;52.540;13.604;2023-08-01T02:47:23;17.27;;;7.50;;
31282;SDS011;17915;52.540;13.604;2023-08-01T02:49:48;13.17;;;6.63;;
31282;SDS011;17915;52.540;13.604;2023-08-01T02:52:13;9.20;;;6.03;;
31282;SDS011;17915;52.540;13.604;2023-08-01T02:54:39;9.27;;;6.37;;
31282;SDS011;17915;52.540;13.604;2023-08-01T02:57:04;8.57;;;6.43;;
31282;SDS011;17915;52.540;13.604;2023-08-01T02:59:30;6.77;;;6.17;;
31282;SDS011;17915;52.540;13.604;2023-08-01T03:01:58;12.73;;;6.80;;
31282;SDS011;17915;52.540;13.604;2023-08-01T03:04:23;10.85;;;7.10;;
31282;SDS011;17915;52.540;13.604;2023-08-01T03:06:49;8.13;;;6.67;;
31282;SDS011;17915;52.540;13.604;2023-08-01T03:09:14;8.87;;;5.97;;
31282;SDS011;17915;52.540;13.604;2023-08-01T03:11:40;7.30;;;6.60;;
31282;SDS011;17915;52.540;13.604;2023-08-01T03:14:06;7.57;;;6.30;;
31282;SDS011;17915;52.540;13.604;2023-08-01T03:16:31;7.10;;;6.40;;
31282;SDS011;17915;52.540;13.604;2023-08-01T03:18:57;10.73;;;6.80;;
31282;SDS011;17915;52.540;13.604;2023-08-01T03:21:24;7.80;;;6.72;;
31282;SDS011;17915;52.540;13.604;2023-08-01T03:23:51;8.48;;;5.95;;
31282;SDS011;17915;52.540;13.604;2023-08-01T03:26:16;6.43;;;5.67;;
31282;SDS011;17915;52.540;13.604;2023-08-01T03:28:43;8.73;;;6.60;;
31282;SDS011;17915;52.540;13.604;2023-08-01T03:31:08;7.57;;;6.47;;
31282;SDS011;17915;52.540;13.604;2023-08-01T03:33:34;9.47;;;7.37;;
31282;SDS011;17915;52.540;13.604;2023-08-01T03:35:59;7.80;;;6.47;;
31282;SDS011;17915;52.540;13.604;2023-08-01T03:38:25;9.03;;;6.50;;
31282;SDS011;17915;52.540;13.604;2023-08-01T03:40:50;12.23;;;6.77;;
31282;SDS011;17915;52.540;13.604;2023-08-01T03:43:15;7.00;;;6.30;;
31282;SDS011;17915;52.540;13.604;2023-08-01T03:45:41;8.83;;;7.00;;
31282;SDS011;17915;52.540;13.604;2023-08-01T03:48:06;9.53;;;5.80;;
31282;SDS011;17915;52.540;13.604;2023-08-01T03:50:31;10.47;;;6.50;;
31282;SDS011;17915;52.540;13.604;2023-08-01T03:52:57;6.30;;;5.80;;
31282;SDS011;17915;52.540;13.604;2023-08-01T03:55:22;7.20;;;6.27;;
31282;SDS011;17915;52.540;13.604;2023-08-01T03:57:47;10.77;;;6.50;;
31282;SDS011;17915;52.540;13.604;2023-08-01T04:00:13;5.83;;;5.33;;
31282;SDS011;17915;52.540;13.604;2023-08-01T04:02:41;6.80;;;6.07;;
31282;SDS011;17915;52.540;13.604;2023-08-01T04:05:07;5.47;;;5.07;;
31282;SDS011;17915;52.540;13.604;2023-08-01T04:07:34;6.30;;;5.68;;
31282;SDS011;17915;52.540;13.604;2023-08-01T04:10:01;6.90;;;6.28;;
31282;SDS011;17915;52.540;13.604;2023-08-01T04:12:26;6.32;;;5.82;;
31282;SDS011;17915;52.540;13.604;2023-08-01T04:14:52;10.10;;;6.03;;
31282;SDS011;17915;52.540;13.604;2023-08-01T04:17:17;6.17;;;5.57;;
31282;SDS011;17915;52.540;13.604;2023-08-01T04:19:42;8.53;;;5.67;;
31282;SDS011;17915;52.540;13.604;2023-08-01T04:22:08;6.40;;;5.63;;
31282;SDS011;17915;52.540;13.604;2023-08-01T04:24:34;5.63;;;5.13;;
31282;SDS011;17915;52.540;13.604;2023-08-01T04:26:59;8.30;;;5.57;;
31282;SDS011;17915;52.540;13.604;2023-08-01T04:29:25;7.97;;;5.37;;
31282;SDS011;17915;52.540;13.604;2023-08-01T04:31:50;7.23;;;5.77;;
31282;SDS011;17915;52.540;13.604;2023-08-01T04:34:15;5.70;;;5.17;;
31282;SDS011;17915;52.540;13.604;2023-08-01T04:36:41;6.37;;;5.57;;
31282;SDS011;17915;52.540;13.604;2023-08-01T04:39:06;7.40;;;5.00;;
31282;SDS011;17915;52.540;13.604;2023-08-01T04:41:31;6.30;;;4.87;;
31282;SDS011;17915;52.540;13.604;2023-08-01T04:43:57;4.87;;;4.47;;
31282;SDS011;17915;52.540;13.604;2023-08-01T04:46:22;6.43;;;4.73;;
31282;SDS011;17915;52.540;13.604;2023-08-01T04:48:48;5.83;;;5.30;;
31282;SDS011;17915;52.540;13.604;2023-08-01T04:51:13;6.50;;;4.53;;
31282;SDS011;17915;52.540;13.604;2023-08-01T04:53:38;9.43;;;4.57;;
31282;SDS011;17915;52.540;13.604;2023-08-01T04:56:04;6.43;;;4.97;;
31282;SDS011;17915;52.540;13.604;2023-08-01T04:58:29;5.80;;;5.22;;
31282;SDS011;17915;52.540;13.604;2023-08-01T05:00:55;8.80;;;5.45;;
31282;SDS011;17915;52.540;13.604;2023-08-01T05:03:21;5.37;;;4.90;;
31282;SDS011;17915;52.540;13.604;2023-08-01T05:05:46;4.63;;;4.40;;
31282;SDS011;17915;52.540;13.604;2023-08-01T05:08:12;4.87;;;4.37;;
31282;SDS011;17915;52.540;13.604;2023-08-01T05:10:37;4.67;;;4.27;;
31282;SDS011;17915;52.540;13.604;2023-08-01T05:13:02;8.10;;;5.03;;
31282;SDS011;17915;52.540;13.604;2023-08-01T05:15:28;4.77;;;4.33;;
31282;SDS011;17915;52.540;13.604;2023-08-01T05:17:53;9.40;;;5.17;;
31282;SDS011;17915;52.540;13.604;2023-08-01T05:20:19;5.18;;;4.70;;
31282;SDS011;17915;52.540;13.604;2023-08-01T05:22:45;7.25;;;4.93;;
31282;SDS011;17915;52.540;13.604;2023-08-01T05:25:10;5.27;;;4.47;;
31282;SDS011;17915;52.540;13.604;2023-08-01T05:27:35;12.87;;;4.90;;
31282;SDS011;17915;52.540;13.604;2023-08-01T05:30:01;4.50;;;3.83;;
31282;SDS011;17915;52.540;13.604;2023-08-01T05:32:26;4.50;;;4.10;;
31282;SDS011;17915;52.540;13.604;2023-08-01T05:34:51;5.13;;;4.73;;
31282;SDS011;17915;52.540;13.604;2023-08-01T05:37:17;5.10;;;4.57;;
31282;SDS011;17915;52.540;13.604;2023-08-01T05:39:42;5.47;;;5.07;;
31282;SDS011;17915;52.540;13.604;2023-08-01T05:42:08;5.60;;;5.10;;
31282;SDS011;17915;52.540;13.604;2023-08-01T05:44:34;5.70;;;5.20;;
31282;SDS011;17915;52.540;13.604;2023-08-01T05:47:00;5.90;;;5.07;;
31282;SDS011;17915;52.540;13.604;2023-08-01T05:49:25;5.40;;;4.33;;
31282;SDS011;17915;52.540;13.604;2023-08-01T05:51:50;7.07;;;5.10;;
31282;SDS011;17915;52.540;13.604;2023-08-01T05:54:16;4.90;;;4.50;;
31282;SDS011;17915;52.540;13.604;2023-08-01T05:56:41;8.53;;;5.23;;
31282;SDS011;17915;52.540;13.604;2023-08-01T05:59:07;6.37;;;4.93;;
31282;SDS011;17915;52.540;13.604;2023-08-01T06:01:32;5.63;;;5.13;;
31282;SDS011;17915;52.540;13.604;2023-08-01T06:03:58;6.03;;;4.87;;
31282;SDS011;17915;52.540;13.604;2023-08-01T06:06:23;7.07;;;5.50;;
31282;SDS011;17915;52.540;13.604;2023-08-01T06:08:48;6.33;;;4.47;;
31282;SDS011;17915;52.540;13.604;2023-08-01T06:11:14;7.25;;;5.30;;
31282;SDS011;17915;52.540;13.604;2023-08-01T06:13:40;4.57;;;3.90;;
31282;SDS011;17915;52.540;13.604;2023-08-01T06:16:05;5.23;;;4.53;;
31282;SDS011;17915;52.540;13.604;2023-08-01T06:18:30;5.90;;;5.10;;
31282;SDS011;17915;52.540;13.604;2023-08-01T06:20:56;6.97;;;5.43;;
31282;SDS011;17915;52.540;13.604;2023-08-01T06:23:21;7.97;;;4.50;;
31282;SDS011;17915;52.540;13.604;2023-08-01T06:25:46;5.07;;;4.30;;
31282;SDS011;17915;52.540;13.604;2023-08-01T06:28:12;5.53;;;4.07;;
31282;SDS011;17915;52.540;13.604;2023-08-01T06:30:37;6.03;;;5.43;;
31282;SDS011;17915;52.540;13.604;2023-08-01T06:33:03;7.40;;;5.20;;
31282;SDS011;17915;52.540;13.604;2023-08-01T06:35:29;4.35;;;3.92;;
31282;SDS011;17915;52.540;13.604;2023-08-01T06:37:54;6.80;;;3.93;;
31282;SDS011;17915;52.540;13.604;2023-08-01T06:40:19;6.57;;;4.57;;
31282;SDS011;17915;52.540;13.604;2023-08-01T06:42:45;6.63;;;4.60;;
31282;SDS011;17915;52.540;13.604;2023-08-01T06:45:10;4.57;;;4.07;;
31282;SDS011;17915;52.540;13.604;2023-08-01T06:47:36;5.07;;;4.57;;
31282;SDS011;17915;52.540;13.604;2023-08-01T06:50:01;6.70;;;4.47;;
31282;SDS011;17915;52.540;13.604;2023-08-01T06:52:26;4.50;;;4.17;;
31282;SDS011;17915;52.540;13.604;2023-08-01T06:54:52;6.90;;;3.93;;
31282;SDS011;17915;52.540;13.604;2023-08-01T06:57:17;6.23;;;4.20;;
31282;SDS011;17915;52.540;13.604;2023-08-01T06:59:43;5.63;;;4.17;;
31282;SDS011;17915;52.540;13.604;2023-08-01T07:02:08;8.10;;;4.03;;
31282;SDS011;17915;52.540;13.604;2023-08-01T07:04:34;4.90;;;4.47;;
31282;SDS011;17915;52.540;13.604;2023-08-01T07:06:59;4.15;;;3.85;;
31282;SDS011;17915;52.540;13.604;2023-08-01T07:09:25;7.43;;;4.47;;
31282;SDS011;17915;52.540;13.604;2023-08-01T07:11:50;5.17;;;3.90;;
31282;SDS011;17915;52.540;13.604;2023-08-01T07:14:15;10.23;;;4.90;;
31282;SDS011;17915;52.540;13.604;2023-08-01T07:16:41;5.57;;;4.40;;
31282;SDS011;17915;52.540;13.604;2023-08-01T07:19:06;4.03;;;3.63;;
31282;SDS011;17915;52.540;13.604;2023-08-01T07:21:32;4.67;;;3.93;;
31282;SDS011;17915;52.540;13.604;2023-08-01T07:23:57;4.77;;;4.40;;
31282;SDS011;17915;52.540;13.604;2023-08-01T07:26:23;4.53;;;3.50;;
31282;SDS011;17915;52.540;13.604;2023-08-01T07:28:48;4.38;;;3.97;;
31282;SDS011;17915;52.540;13.604;2023-08-01T07:31:14;4.97;;;4.03;;
31282;SDS011;17915;52.540;13.604;2023-08-01T07:33:39;3.83;;;3.60;;
31282;SDS011;17915;52.540;13.604;2023-08-01T07:36:05;6.87;;;4.00;;
31282;SDS011;17915;52.540;13.604;2023-08-01T07:38:30;4.03;;;3.73;;
31282;SDS011;17915;52.540;13.604;2023-08-01T07:40:57;5.95;;;3.83;;
31282;SDS011;17915;52.540;13.604;2023-08-01T07:43:22;8.65;;;3.72;;
31282;SDS011;17915;52.540;13.604;2023-08-01T07:45:48;6.07;;;3.80;;
31282;SDS011;17915;52.540;13.604;2023-08-01T07:48:15;3.60;;;3.38;;
31282;SDS011;17915;52.540;13.604;2023-08-01T07:50:40;4.60;;;4.13;;
31282;SDS011;17915;52.540;13.604;2023-08-01T07:53:06;4.57;;;4.17;;
31282;SDS011;17915;52.540;13.604;2023-08-01T07:55:34;4.18;;;3.78;;
31282;SDS011;17915;52.540;13.604;2023-08-01T07:58:00;2.95;;;2.85;;
31282;SDS011;17915;52.540;13.604;2023-08-01T08:00:26;4.82;;;4.32;;
31282;SDS011;17915;52.540;13.604;2023-08-01T08:02:51;6.40;;;3.87;;
31282;SDS011;17915;52.540;13.604;2023-08-01T08:05:17;5.25;;;3.85;;
31282;SDS011;17915;52.540;13.604;2023-08-01T08:07:43;5.33;;;3.67;;
31282;SDS011;17915;52.540;13.604;2023-08-01T08:10:08;4.30;;;3.83;;
31282;SDS011;17915;52.540;13.604;2023-08-01T08:12:34;3.10;;;2.90;;
31282;SDS011;17915;52.540;13.604;2023-08-01T08:14:59;4.17;;;3.27;;
31282;SDS011;17915;52.540;13.604;2023-08-01T08:17:24;3.77;;;3.47;;
31282;SDS011;17915;52.540;13.604;2023-08-01T08:19:50;5.20;;;2.83;;
31282;SDS011;17915;52.540;13.604;2023-08-01T08:22:15;3.77;;;2.53;;
31282;SDS011;17915;52.540;13.604;2023-08-01T08:24:41;3.90;;;3.60;;
31282;SDS011;17915;52.540;13.604;2023-08-01T08:27:06;4.07;;;2.50;;
31282;SDS011;17915;52.540;13.604;2023-08-01T08:29:32;3.23;;;2.67;;
31282;SDS011;17915;52.540;13.604;2023-08-01T08:31:58;3.33;;;3.03;;
31282;SDS011;17915;52.540;13.604;2023-08-01T08:34:23;2.70;;;2.60;;
31282;SDS011;17915;52.540;13.604;2023-08-01T08:36:49;3.53;;;3.30;;
31282;SDS011;17915;52.540;13.604;2023-08-01T08:39:17;4.30;;;2.55;;
31282;SDS011;17915;52.540;13.604;2023-08-01T08:41:51;4.85;;;3.13;;
31282;SDS011;17915;52.540;13.604;2023-08-01T08:44:17;6.78;;;2.95;;
31282;SDS011;17915;52.540;13.604;2023-08-01T08:46:46;2.60;;;2.40;;
31282;SDS011;17915;52.540;13.604;2023-08-01T08:49:14;6.07;;;2.67;;
31282;SDS011;17915;52.540;13.604;2023-08-01T08:51:41;3.65;;;3.00;;
31282;SDS011;17915;52.540;13.604;2023-08-01T08:54:07;4.78;;;2.53;;
31282;SDS011;17915;52.540;13.604;2023-08-01T08:56:33;2.95;;;2.78;;
31282;SDS011;17915;52.540;13.604;2023-08-01T08:58:59;3.05;;;2.85;;
31282;SDS011;17915;52.540;13.604;2023-08-01T09:01:25;7.60;;;3.50;;
31282;SDS011;17915;52.540;13.604;2023-08-01T09:03:51;8.25;;;2.72;;
31282;SDS011;17915;52.540;13.604;2023-08-01T09:06:19;5.03;;;2.72;;
31282;SDS011;17915;52.540;13.604;2023-08-01T09:08:49;3.97;;;2.78;;
31282;SDS011;17915;52.540;13.604;2023-08-01T09:11:16;2.83;;;2.45;;
31282;SDS011;17915;52.540;13.604;2023-08-01T09:13:42;6.22;;;2.60;;
31282;SDS011;17915;52.540;13.604;2023-08-01T09:16:07;3.53;;;2.63;;
31282;SDS011;17915;52.540;13.604;2023-08-01T09:18:34;7.57;;;2.45;;
31282;SDS011;17915;52.540;13.604;2023-08-01T09:21:00;2.90;;;2.80;;
31282;SDS011;17915;52.540;13.604;2023-08-01T09:23:27;5.82;;;3.63;;
31282;SDS011;17915;52.540;13.604;2023-08-01T09:25:53;4.22;;;4.03;;
31282;SDS011;17915;52.540;13.604;2023-08-01T09:28:22;8.83;;;3.33;;
31282;SDS011;17915;52.540;13.604;2023-08-01T09:30:48;3.85;;;2.97;;
31282;SDS011;17915;52.540;13.604;2023-08-01T09:33:15;2.47;;;2.28;;
31282;SDS011;17915;52.540;13.604;2023-08-01T09:35:41;8.63;;;2.53;;
31282;SDS011;17915;52.540;13.604;2023-08-01T09:38:09;2.33;;;2.13;;
31282;SDS011;17915;52.540;13.604;2023-08-01T09:40:38;5.03;;;2.28;;
31282;SDS011;17915;52.540;13.604;2023-08-01T09:43:03;19.30;;;5.65;;
31282;SDS011;17915;52.540;13.604;2023-08-01T09:45:29;7.03;;;3.53;;
31282;SDS011;17915;52.540;13.604;2023-08-01T09:47:54;3.30;;;3.00;;
31282;SDS011;17915;52.540;13.604;2023-08-01T09:50:21;1.58;;;1.40;;
31282;SDS011;17915;52.540;13.604;2023-08-01T09:52:47;1.50;;;1.40;;
31282;SDS011;17915;52.540;13.604;2023-08-01T09:55:26;4.03;;;1.42;;
31282;SDS011;17915;52.540;13.604;2023-08-01T09:58:00;2.08;;;1.95;;
31282;SDS011;17915;52.540;13.604;2023-08-01T10:00:26;1.95;;;1.50;;
31282;SDS011;17915;52.540;13.604;2023-08-01T10:02:52;3.00;;;1.33;;
31282;SDS011;17915;52.540;13.604;2023-08-01T10:05:18;4.70;;;1.77;;
31282;SDS011;17915;52.540;13.604;2023-08-01T10:07:44;30.60;;;6.72;;
31282;SDS011;17915;52.540;13.604;2023-08-01T10:10:10;2.95;;;2.28;;
31282;SDS011;17915;52.540;13.604;2023-08-01T10:12:37;5.05;;;1.77;;
31282;SDS011;17915;52.540;13.604;2023-08-01T10:15:03;6.90;;;2.70;;
31282;SDS011;17915;52.540;13.604;2023-08-01T10:17:29;2.42;;;2.20;;
31282;SDS011;17915;52.540;13.604;2023-08-01T10:19:55;9.20;;;2.50;;
31282;SDS011;17915;52.540;13.604;2023-08-01T10:22:21;10.68;;;2.88;;
31282;SDS011;17915;52.540;13.604;2023-08-01T10:24:46;26.33;;;8.00;;
31282;SDS011;17915;52.540;13.604;2023-08-01T10:29:44;15.82;;;4.13;;
31282;SDS011;17915;52.540;13.604;2023-08-01T10:32:09;11.40;;;4.25;;
31282;SDS011;17915;52.540;13.604;2023-08-01T10:34:35;9.57;;;3.30;;
31282;SDS011;17915;52.540;13.604;2023-08-01T10:37:01;3.58;;;2.90;;
31282;SDS011;17915;52.540;13.604;2023-08-01T10:39:27;2.83;;;2.07;;
31282;SDS011;17915;52.540;13.604;2023-08-01T10:41:57;2.30;;;2.05;;
31282;SDS011;17915;52.540;13.604;2023-08-01T10:44:28;9.07;;;3.38;;
31282;SDS011;17915;52.540;13.604;2023-08-01T10:47:02;24.92;;;8.00;;
31282;SDS011;17915;52.540;13.604;2023-08-01T10:49:42;1.85;;;1.73;;
31282;SDS011;17915;52.540;13.604;2023-08-01T10:54:43;3.15;;;2.10;;
31282;SDS011;17915;52.540;13.604;2023-08-01T10:57:09;17.98;;;5.13;;
31282;SDS011;17915;52.540;13.604;2023-08-01T10:59:43;4.97;;;1.60;;
31282;SDS011;17915;52.540;13.604;2023-08-01T11:04:35;2.60;;;2.22;;
31282;SDS011;17915;52.540;13.604;2023-08-01T11:07:01;2.07;;;1.90;;
31282;SDS011;17915;52.540;13.604;2023-08-01T11:09:27;1.95;;;1.75;;
31282;SDS011;17915;52.540;13.604;2023-08-01T11:14:22;1.40;;;1.30;;
31282;SDS011;17915;52.540;13.604;2023-08-01T11:16:53;4.75;;;3.50;;
31282;SDS011;17915;52.540;13.604;2023-08-01T11:19:20;17.92;;;10.75;;
31282;SDS011;17915;52.540;13.604;2023-08-01T11:21:53;17.80;;;11.02;;
31282;SDS011;17915;52.540;13.604;2023-08-01T11:24:23;8.60;;;4.80;;
31282;SDS011;17915;52.540;13.604;2023-08-01T11:26:50;5.90;;;3.17;;
31282;SDS011;17915;52.540;13.604;2023-08-01T11:29:16;5.30;;;4.70;;
31282;SDS011;17915;52.540;13.604;2023-08-01T11:31:55;4.85;;;4.45;;
31282;SDS011;17915;52.540;13.604;2023-08-01T11:34:22;5.88;;;5.32;;
31282;SDS011;17915;52.540;13.604;2023-08-01T11:36:48;1.90;;;1.77;;
31282;SDS011;17915;52.540;13.604;2023-08-01T11:39:14;1.70;;;1.60;;
31282;SDS011;17915;52.540;13.604;2023-08-01T11:44:05;3.35;;;1.77;;
31282;SDS011;17915;52.540;13.604;2023-08-01T11:46:31;3.35;;;2.00;;
31282;SDS011;17915;52.540;13.604;2023-08-01T11:48:58;1.73;;;1.65;;
31282;SDS011;17915;52.540;13.604;2023-08-01T11:51:24;2.92;;;2.20;;
31282;SDS011;17915;52.540;13.604;2023-08-01T11:53:59;3.33;;;2.70;;
31282;SDS011;17915;52.540;13.604;2023-08-01T11:56:28;3.13;;;2.20;;
31282;SDS011;17915;52.540;13.604;2023-08-01T11:58:54;3.72;;;2.70;;
31282;SDS011;17915;52.540;13.604;2023-08-01T12:01:20;3.67;;;2.90;;
31282;SDS011;17915;52.540;13.604;2023-08-01T12:03:48;6.03;;;2.85;;
31282;SDS011;17915;52.540;13.604;2023-08-01T12:06:15;8.85;;;3.28;;
31282;SDS011;17915;52.540;13.604;2023-08-01T12:08:44;4.85;;;2.95;;
31282;SDS011;17915;52.540;13.604;2023-08-01T12:11:44;2.90;;;2.80;;
31282;SDS011;17915;52.540;13.604;2023-08-01T12:14:03;6.25;;;3.78;;
31282;SDS011;17915;52.540;13.604;2023-08-01T12:16:36;7.85;;;3.22;;
31282;SDS011;17915;52.540;13.604;2023-08-01T12:19:03;3.85;;;3.03;;
31282;SDS011;17915;52.540;13.604;2023-08-01T12:21:29;4.07;;;3.25;;
31282;SDS011;17915;52.540;13.604;2023-08-01T12:23:55;3.53;;;3.20;;
31282;SDS011;17915;52.540;13.604;2023-08-01T12:26:22;3.33;;;3.03;;
31282;SDS011;17915;52.540;13.604;2023-08-01T12:28:48;4.13;;;3.83;;
31282;SDS011;17915;52.540;13.604;2023-08-01T12:31:16;5.23;;;4.03;;
31282;SDS011;17915;52.540;13.604;2023-08-01T12:33:43;6.03;;;3.60;;
31282;SDS011;17915;52.540;13.604;2023-08-01T12:36:09;7.63;;;3.80;;
31282;SDS011;17915;52.540;13.604;2023-08-01T12:38:34;4.50;;;3.67;;
31282;SDS011;17915;52.540;13.604;2023-08-01T12:41:00;5.60;;;4.67;;
31282;SDS011;17915;52.540;13.604;2023-08-01T12:43:26;5.28;;;4.65;;
31282;SDS011;17915;52.540;13.604;2023-08-01T12:45:52;7.28;;;4.00;;
31282;SDS011;17915;52.540;13.604;2023-08-01T12:48:17;5.10;;;4.07;;
31282;SDS011;17915;52.540;13.604;2023-08-01T12:50:43;4.77;;;3.87;;
31282;SDS011;17915;52.540;13.604;2023-08-01T12:53:13;6.28;;;5.07;;
31282;SDS011;17915;52.540;13.604;2023-08-01T12:55:38;5.97;;;4.33;;
31282;SDS011;17915;52.540;13.604;2023-08-01T12:58:04;6.00;;;4.07;;
31282;SDS011;17915;52.540;13.604;2023-08-01T13:00:29;8.10;;;4.80;;
31282;SDS011;17915;52.540;13.604;2023-08-01T13:02:55;7.20;;;6.55;;
31282;SDS011;17915;52.540;13.604;2023-08-01T13:05:21;6.45;;;4.65;;
31282;SDS011;17915;52.540;13.604;2023-08-01T13:07:46;6.27;;;4.37;;
31282;SDS011;17915;52.540;13.604;2023-08-01T13:10:12;4.97;;;4.57;;
31282;SDS011;17915;52.540;13.604;2023-08-01T13:12:39;6.47;;;3.65;;
31282;SDS011;17915;52.540;13.604;2023-08-01T13:15:05;9.20;;;5.07;;
31282;SDS011;17915;52.540;13.604;2023-08-01T13:17:31;4.70;;;4.15;;
31282;SDS011;17915;52.540;13.604;2023-08-01T13:19:56;5.60;;;4.33;;
31282;SDS011;17915;52.540;13.604;2023-08-01T13:22:21;6.93;;;5.47;;
31282;SDS011;17915;52.540;13.604;2023-08-01T13:24:47;9.07;;;6.07;;
31282;SDS011;17915;52.540;13.604;2023-08-01T13:27:13;4.80;;;4.00;;
31282;SDS011;17915;52.540;13.604;2023-08-01T13:29:39;5.20;;;4.53;;
31282;SDS011;17915;52.540;13.604;2023-08-01T13:34:31;10.90;;;4.47;;
31282;SDS011;17915;52.540;13.604;2023-08-01T13:36:56;5.40;;;4.23;;
31282;SDS011;17915;52.540;13.604;2023-08-01T13:39:21;13.67;;;4.70;;
31282;SDS011;17915;52.540;13.604;2023-08-01T13:41:47;8.40;;;4.70;;
31282;SDS011;17915;52.540;13.604;2023-08-01T13:44:12;6.33;;;4.63;;
31282;SDS011;17915;52.540;13.604;2023-08-01T13:46:38;4.33;;;3.93;;
31282;SDS011;17915;52.540;13.604;2023-08-01T13:49:03;5.33;;;4.83;;
31282;SDS011;17915;52.540;13.604;2023-08-01T13:51:31;9.50;;;5.20;;
31282;SDS011;17915;52.540;13.604;2023-08-01T13:53:59;7.03;;;4.75;;
31282;SDS011;17915;52.540;13.604;2023-08-01T13:56:25;9.30;;;5.05;;
31282;SDS011;17915;52.540;13.604;2023-08-01T13:58:51;6.25;;;5.28;;
31282;SDS011;17915;52.540;13.604;2023-08-01T14:01:16;5.38;;;4.55;;
31282;SDS011;17915;52.540;13.604;2023-08-01T14:03:44;4.50;;;4.03;;
31282;SDS011;17915;52.540;13.604;2023-08-01T14:06:10;7.25;;;4.35;;
31282;SDS011;17915;52.540;13.604;2023-08-01T14:08:37;8.45;;;4.47;;
31282;SDS011;17915;52.540;13.604;2023-08-01T14:11:03;5.07;;;4.53;;
31282;SDS011;17915;52.540;13.604;2023-08-01T14:13:29;4.63;;;3.92;;
31282;SDS011;17915;52.540;13.604;2023-08-01T14:15:55;6.43;;;3.97;;
31282;SDS011;17915;52.540;13.604;2023-08-01T14:18:20;5.47;;;4.10;;
31282;SDS011;17915;52.540;13.604;2023-08-01T14:20:46;4.50;;;4.10;;
31282;SDS011;17915;52.540;13.604;2023-08-01T14:23:11;5.50;;;4.23;;
31282;SDS011;17915;52.540;13.604;2023-08-01T14:25:37;7.50;;;4.00;;
31282;SDS011;17915;52.540;13.604;2023-08-01T14:28:03;6.50;;;5.03;;
31282;SDS011;17915;52.540;13.604;2023-08-01T14:30:28;5.93;;;5.22;;
31282;SDS011;17915;52.540;13.604;2023-08-01T14:33:04;7.57;;;4.00;;
31282;SDS011;17915;52.540;13.604;2023-08-01T14:35:31;4.40;;;4.00;;
31282;SDS011;17915;52.540;13.604;2023-08-01T14:37:56;4.45;;;3.88;;
31282;SDS011;17915;52.540;13.604;2023-08-01T14:40:22;9.00;;;3.78;;
31282;SDS011;17915;52.540;13.604;2023-08-01T14:45:13;4.75;;;4.32;;